createdAt,value
2022-12-16T00:00:16.090Z,19.10
2022-12-16T00:02:43.664Z,19.10
2022-12-16T00:05:11.263Z,19.10
2022-12-16T00:07:38.761Z,19.10
2022-12-16T00:10:06.750Z,19.10
2022-12-16T00:12:34.212Z,19.20
2022-12-16T00:15:01.658Z,19.20
2022-12-16T00:17:29.165Z,19.30
2022-12-16T00:19:56.626Z,19.30
2022-12-16T00:22:24.282Z,19.40
2022-12-16T00:24:52.649Z,19.40
2022-12-16T00:27:20.155Z,19.50
2022-12-16T00:29:47.685Z,19.50
2022-12-16T00:32:15.423Z,19.60
2022-12-16T00:34:43.001Z,19.60
2022-12-16T00:37:12.460Z,19.70
2022-12-16T00:39:39.991Z,19.70
2022-12-16T00:42:07.488Z,19.70
2022-12-16T00:44:35.535Z,19.80
2022-12-16T00:47:03.179Z,19.90
2022-12-16T00:49:30.668Z,19.90
2022-12-16T00:51:58.144Z,19.90
2022-12-16T00:54:25.711Z,20.00
2022-12-16T00:56:53.666Z,20.10
2022-12-16T00:59:21.500Z,20.10
2022-12-16T01:01:51.606Z,20.10
2022-12-16T01:04:20.127Z,19.80
2022-12-16T01:06:47.756Z,20.30
2022-12-16T01:09:15.626Z,20.40
2022-12-16T01:11:43.605Z,20.40
2022-12-16T01:14:11.145Z,20.50
2022-12-16T01:16:38.945Z,20.50
2022-12-16T01:19:06.675Z,20.60
2022-12-16T01:21:34.157Z,20.60
2022-12-16T01:24:08.534Z,20.70
2022-12-16T01:26:36.264Z,20.80
2022-12-16T01:29:03.831Z,20.80
2022-12-16T01:31:31.599Z,20.90
2022-12-16T01:33:59.921Z,21.00
2022-12-16T01:36:27.893Z,21.00
2022-12-16T01:38:56.337Z,21.10
2022-12-16T01:41:23.865Z,21.10
2022-12-16T01:43:52.207Z,21.20
2022-12-16T01:46:22.459Z,21.30
2022-12-16T01:48:58.066Z,21.40
2022-12-16T01:51:29.192Z,21.50
2022-12-16T01:53:59.623Z,21.50
2022-12-16T01:56:29.328Z,21.60
2022-12-16T01:58:57.738Z,21.60
2022-12-16T02:01:26.446Z,21.70
2022-12-16T02:03:55.033Z,21.70
2022-12-16T02:06:23.125Z,21.80
2022-12-16T02:08:54.596Z,21.90
2022-12-16T02:11:37.192Z,22.00
2022-12-16T02:14:07.592Z,22.10
2022-12-16T02:17:12.566Z,22.20
2022-12-16T02:20:01.014Z,22.30
2022-12-16T02:22:40.104Z,22.40
2022-12-16T02:25:26.531Z,22.50
2022-12-16T02:27:57.190Z,22.60
2022-12-16T02:30:35.862Z,22.70
2022-12-16T02:33:03.423Z,22.70
2022-12-16T02:35:36.524Z,22.80
2022-12-16T02:38:23.610Z,22.80
2022-12-16T02:40:51.893Z,22.90
2022-12-16T02:43:40.114Z,23.10
2022-12-16T02:46:08.019Z,23.20
2022-12-16T02:48:36.228Z,23.30
2022-12-16T02:51:04.202Z,23.30
2022-12-16T02:53:35.857Z,23.30
2022-12-16T02:56:09.863Z,23.40
2022-12-16T02:58:40.852Z,23.50
2022-12-16T03:01:08.536Z,23.50
2022-12-16T03:03:41.063Z,23.60
2022-12-16T03:06:11.317Z,23.60
2022-12-16T03:08:41.268Z,23.70
2022-12-16T03:11:08.965Z,23.80
2022-12-16T03:13:41.653Z,23.80
2022-12-16T03:16:10.633Z,23.90
2022-12-16T03:18:40.884Z,24.00
2022-12-16T03:21:10.116Z,24.10
2022-12-16T03:23:44.578Z,24.20
2022-12-16T03:26:17.220Z,24.20
2022-12-16T03:29:07.454Z,24.30
2022-12-16T03:31:41.300Z,24.40
2022-12-16T03:34:23.182Z,24.50
2022-12-16T03:36:53.973Z,24.60
2022-12-16T03:39:23.390Z,24.60
2022-12-16T03:41:51.893Z,24.70
2022-12-16T03:44:20.447Z,24.70
2022-12-16T03:46:48.527Z,24.80
2022-12-16T03:49:16.868Z,24.80
2022-12-16T03:51:45.030Z,24.90
2022-12-16T03:54:12.552Z,24.90
2022-12-16T03:56:40.159Z,24.90
2022-12-16T03:59:07.912Z,25.00
2022-12-16T04:01:35.729Z,25.00
2022-12-16T04:04:04.904Z,25.10
2022-12-16T04:06:32.777Z,25.20
2022-12-16T04:09:01.545Z,25.20
2022-12-16T04:11:47.476Z,25.20
2022-12-16T04:14:34.289Z,25.30
2022-12-16T04:17:20.067Z,25.40
2022-12-16T04:20:07.376Z,25.50
2022-12-16T04:22:54.477Z,25.60
2022-12-16T04:25:25.417Z,25.60
2022-12-16T04:27:53.236Z,25.70
2022-12-16T04:30:21.150Z,25.70
2022-12-16T04:33:15.473Z,25.70
2022-12-16T04:36:01.888Z,25.70
2022-12-16T04:38:48.926Z,25.80
2022-12-16T04:41:34.855Z,25.90
2022-12-16T04:44:21.173Z,25.90
2022-12-16T04:47:08.452Z,25.90
2022-12-16T04:49:54.607Z,26.00
2022-12-16T04:52:41.858Z,26.00
2022-12-16T04:55:28.420Z,26.00
2022-12-16T04:58:21.661Z,26.00
2022-12-16T05:01:08.552Z,26.10
2022-12-16T05:03:54.694Z,26.20
2022-12-16T05:06:40.585Z,26.20
2022-12-16T05:09:42.115Z,26.30
2022-12-16T05:12:27.864Z,26.30
2022-12-16T05:15:14.206Z,26.40
2022-12-16T05:17:59.851Z,26.50
2022-12-16T05:20:45.673Z,26.50
2022-12-16T05:23:31.424Z,26.50
2022-12-16T05:26:17.480Z,26.60
2022-12-16T05:29:05.064Z,26.60
2022-12-16T05:31:51.731Z,26.60
2022-12-16T05:34:37.792Z,26.70
2022-12-16T05:37:23.540Z,26.80
2022-12-16T05:40:09.681Z,26.90
2022-12-16T05:42:57.727Z,26.90
2022-12-16T05:45:43.481Z,26.90
2022-12-16T05:48:29.041Z,27.00
2022-12-16T05:51:15.834Z,27.10
2022-12-16T05:54:01.843Z,27.10
2022-12-16T05:56:47.839Z,27.20
2022-12-16T05:59:33.895Z,27.20
2022-12-16T06:02:19.880Z,27.30
2022-12-16T06:05:06.013Z,27.30
2022-12-16T06:07:52.764Z,27.40
2022-12-16T06:10:40.057Z,27.40
2022-12-16T06:13:29.307Z,27.40
2022-12-16T06:16:18.080Z,27.40
2022-12-16T06:19:04.521Z,27.50
2022-12-16T06:21:50.283Z,27.50
2022-12-16T06:24:37.006Z,27.50
2022-12-16T06:27:23.532Z,27.50
2022-12-16T06:30:10.221Z,27.50
2022-12-16T06:33:00.493Z,27.60
2022-12-16T06:35:46.656Z,27.60
2022-12-16T06:38:33.343Z,27.60
2022-12-16T06:41:19.681Z,27.70
2022-12-16T06:44:06.127Z,27.70
2022-12-16T06:46:52.216Z,27.70
2022-12-16T06:49:38.377Z,27.80
2022-12-16T06:52:24.572Z,27.80
2022-12-16T06:55:10.403Z,27.80
2022-12-16T06:57:57.049Z,27.80
2022-12-16T07:00:42.921Z,27.80
2022-12-16T07:03:32.791Z,27.80
2022-12-16T07:06:21.408Z,27.90
2022-12-16T07:09:08.618Z,27.90
2022-12-16T07:11:54.717Z,27.90
2022-12-16T07:14:42.394Z,27.90
2022-12-16T07:17:28.284Z,27.90
2022-12-16T07:20:15.107Z,27.90
2022-12-16T07:23:13.175Z,28.00
2022-12-16T07:26:03.424Z,27.90
2022-12-16T07:28:49.070Z,28.00
2022-12-16T07:31:35.835Z,28.00
2022-12-16T07:34:27.099Z,28.00
2022-12-16T07:37:14.026Z,28.00
2022-12-16T07:40:00.675Z,28.10
2022-12-16T07:42:47.322Z,28.10
2022-12-16T07:45:33.522Z,28.20
2022-12-16T07:48:20.237Z,28.20
2022-12-16T07:51:08.538Z,28.20
2022-12-16T07:53:54.889Z,28.30
2022-12-16T07:56:43.493Z,28.30
2022-12-16T07:59:29.366Z,28.30
2022-12-16T08:02:15.334Z,28.30
2022-12-16T08:05:01.594Z,28.20
2022-12-16T08:07:47.244Z,28.30
2022-12-16T08:10:33.429Z,28.20
2022-12-16T08:13:25.810Z,28.30
2022-12-16T08:16:12.259Z,28.30
2022-12-16T08:18:57.989Z,28.30
2022-12-16T08:21:44.539Z,28.30
2022-12-16T08:24:32.141Z,28.30
2022-12-16T08:27:18.176Z,28.30
2022-12-16T08:30:03.800Z,28.20
2022-12-16T08:32:57.197Z,28.20
2022-12-16T08:35:44.803Z,28.20
2022-12-16T08:38:34.205Z,28.20
2022-12-16T08:41:22.300Z,28.30
2022-12-16T08:44:07.940Z,28.20
2022-12-16T08:46:53.514Z,28.30
2022-12-16T08:49:43.383Z,28.30
2022-12-16T08:52:30.350Z,28.20
2022-12-16T08:55:17.050Z,28.20
2022-12-16T08:58:03.047Z,28.20
2022-12-16T09:00:49.435Z,28.20
2022-12-16T09:03:36.310Z,28.20
2022-12-16T09:06:23.590Z,28.20
2022-12-16T09:09:09.549Z,28.20
2022-12-16T09:11:55.330Z,28.20
2022-12-16T09:14:41.729Z,28.20
2022-12-16T09:17:27.833Z,28.20
2022-12-16T09:20:13.565Z,28.20
2022-12-16T09:22:59.598Z,28.20
2022-12-16T09:25:46.445Z,28.20
2022-12-16T09:28:32.163Z,28.20
2022-12-16T09:31:18.385Z,28.20
2022-12-16T09:34:04.936Z,28.20
2022-12-16T09:36:51.135Z,28.10
2022-12-16T09:39:37.295Z,28.10
2022-12-16T09:42:41.076Z,28.10
2022-12-16T09:45:27.690Z,28.10
2022-12-16T09:48:25.890Z,28.10
2022-12-16T09:51:16.489Z,28.00
2022-12-16T09:54:03.912Z,28.00
2022-12-16T09:56:51.835Z,27.90
2022-12-16T10:02:33.123Z,27.90
2022-12-16T10:05:20.865Z,27.90
2022-12-16T10:08:23.641Z,27.80
2022-12-16T10:11:12.458Z,27.80
2022-12-16T10:14:07.329Z,27.80
2022-12-16T10:17:14.026Z,27.70
2022-12-16T10:20:09.920Z,27.70
2022-12-16T10:22:58.522Z,27.60
2022-12-16T10:26:07.071Z,27.60
2022-12-16T10:29:06.403Z,27.50
2022-12-16T10:31:52.774Z,27.50
2022-12-16T10:34:43.513Z,27.40
2022-12-16T10:37:43.275Z,27.30
2022-12-16T10:40:32.852Z,27.30
2022-12-16T10:43:23.207Z,27.20
2022-12-16T10:46:11.194Z,27.10
2022-12-16T10:48:57.958Z,27.00
2022-12-16T10:51:46.791Z,26.90
2022-12-16T10:54:32.651Z,26.90
2022-12-16T10:57:32.233Z,26.80
2022-12-16T11:00:33.822Z,26.80
2022-12-16T11:03:38.996Z,26.70
2022-12-16T11:06:25.357Z,26.60
2022-12-16T11:09:11.252Z,26.60
2022-12-16T11:11:57.036Z,26.60
2022-12-16T11:15:05.819Z,26.50
2022-12-16T11:17:52.750Z,26.40
2022-12-16T11:20:40.272Z,26.40
2022-12-16T11:23:33.581Z,26.30
2022-12-16T11:26:38.758Z,26.30
2022-12-16T11:29:27.941Z,26.20
2022-12-16T11:32:16.493Z,26.20
2022-12-16T11:35:03.655Z,26.20
2022-12-16T11:37:50.749Z,26.10
2022-12-16T11:40:37.798Z,26.10
2022-12-16T11:43:24.083Z,26.10
2022-12-16T11:46:11.167Z,26.10
2022-12-16T11:48:59.628Z,26.00
2022-12-16T11:51:46.518Z,26.00
2022-12-16T11:54:36.914Z,25.90
2022-12-16T11:57:24.726Z,25.90
2022-12-16T12:00:19.831Z,25.90
2022-12-16T12:03:14.224Z,25.90
2022-12-16T12:06:12.771Z,25.90
2022-12-16T12:09:18.061Z,25.80
2022-12-16T12:12:14.940Z,25.80
2022-12-16T12:15:23.223Z,25.80
2022-12-16T12:18:11.818Z,25.80
2022-12-16T12:21:03.786Z,25.80
2022-12-16T12:23:50.344Z,25.70
2022-12-16T12:26:39.893Z,25.70
2022-12-16T12:29:38.061Z,25.70
2022-12-16T12:32:42.451Z,25.70
2022-12-16T12:35:36.971Z,25.70
2022-12-16T12:38:34.425Z,25.70
2022-12-16T12:41:33.399Z,25.70
2022-12-16T12:44:48.641Z,25.70
2022-12-16T12:47:44.373Z,25.70
2022-12-16T12:50:40.950Z,25.70
2022-12-16T12:53:41.586Z,25.60
2022-12-16T12:56:46.278Z,25.60
2022-12-16T12:59:38.682Z,25.60
2022-12-16T13:02:25.656Z,25.60
2022-12-16T13:05:12.413Z,25.60
2022-12-16T13:07:59.020Z,25.50
2022-12-16T13:10:45.508Z,25.60
2022-12-16T13:13:34.901Z,25.50
2022-12-16T13:16:23.584Z,25.50
2022-12-16T13:19:30.522Z,25.50
2022-12-16T13:22:17.134Z,25.40
2022-12-16T13:25:09.988Z,25.40
2022-12-16T13:28:07.700Z,25.40
2022-12-16T13:30:56.059Z,25.40
2022-12-16T13:33:43.468Z,25.30
2022-12-16T13:36:31.244Z,25.30
2022-12-16T13:39:19.324Z,25.30
2022-12-16T13:42:07.318Z,25.30
2022-12-16T13:44:55.853Z,25.20
2022-12-16T13:48:13.765Z,25.20
2022-12-16T13:50:59.565Z,25.20
2022-12-16T13:53:50.487Z,25.10
2022-12-16T13:56:49.610Z,25.10
2022-12-16T13:59:45.868Z,25.00
2022-12-16T14:02:38.789Z,25.00
2022-12-16T14:05:33.383Z,25.00
2022-12-16T14:08:20.052Z,24.90
2022-12-16T14:11:12.173Z,24.90
2022-12-16T14:14:05.303Z,24.80
2022-12-16T14:17:10.142Z,24.80
2022-12-16T14:20:14.504Z,24.80
2022-12-16T14:23:47.218Z,24.80
2022-12-16T14:26:29.528Z,24.80
2022-12-16T14:29:15.163Z,24.70
2022-12-16T14:32:02.775Z,24.70
2022-12-16T14:35:05.938Z,24.70
2022-12-16T14:37:56.258Z,24.70
2022-12-16T14:40:43.644Z,24.60
2022-12-16T14:43:34.324Z,24.60
2022-12-16T14:46:20.520Z,24.60
2022-12-16T14:49:07.332Z,24.50
2022-12-16T14:51:54.480Z,24.50
2022-12-16T14:54:44.884Z,24.50
2022-12-16T14:57:39.295Z,24.40
2022-12-16T15:00:27.826Z,24.40
2022-12-16T15:03:15.581Z,24.40
2022-12-16T15:06:02.884Z,24.40
2022-12-16T15:08:51.059Z,24.30
2022-12-16T15:11:38.421Z,24.30
2022-12-16T15:14:25.276Z,24.30
2022-12-16T15:17:12.418Z,24.20
2022-12-16T15:20:03.883Z,24.20
2022-12-16T15:22:50.086Z,24.20
2022-12-16T15:25:38.248Z,24.10
2022-12-16T15:28:23.778Z,24.10
2022-12-16T15:31:17.550Z,24.20
2022-12-16T15:34:03.472Z,24.20
2022-12-16T15:36:50.786Z,24.20
2022-12-16T15:39:45.138Z,24.10
2022-12-16T15:42:38.991Z,24.10
2022-12-16T15:45:34.607Z,24.10
2022-12-16T15:48:26.581Z,24.10
2022-12-16T15:51:12.698Z,24.10
2022-12-16T15:53:58.622Z,24.10
2022-12-16T15:57:00.709Z,24.10
2022-12-16T15:59:48.332Z,24.10
2022-12-16T16:02:36.315Z,24.10
2022-12-16T16:05:29.056Z,24.10
2022-12-16T16:08:14.582Z,24.10
2022-12-16T16:11:01.713Z,24.10
2022-12-16T16:13:47.455Z,24.10
2022-12-16T16:16:33.815Z,24.10
2022-12-16T16:19:19.668Z,24.10
2022-12-16T16:22:06.305Z,24.10
2022-12-16T16:24:52.126Z,24.10
2022-12-16T16:27:39.236Z,24.10
2022-12-16T16:30:25.608Z,24.10
2022-12-16T16:33:11.232Z,24.10
2022-12-16T16:35:57.190Z,24.00
2022-12-16T16:38:43.386Z,24.00
2022-12-16T16:41:32.148Z,24.00
2022-12-16T16:44:19.774Z,24.00
2022-12-16T16:47:06.074Z,24.00
2022-12-16T16:50:02.637Z,24.00
2022-12-16T16:52:48.872Z,24.00
2022-12-16T16:55:34.392Z,24.00
2022-12-16T16:58:23.615Z,23.90
2022-12-16T17:01:09.722Z,23.90
2022-12-16T17:03:55.868Z,23.80
2022-12-16T17:06:41.870Z,23.80
2022-12-16T17:09:28.429Z,23.80
2022-12-16T17:12:14.337Z,23.80
2022-12-16T17:15:00.135Z,23.80
2022-12-16T17:17:46.390Z,23.80
2022-12-16T17:20:35.563Z,23.70
2022-12-16T17:23:22.066Z,23.70
2022-12-16T17:26:07.423Z,23.70
2022-12-16T17:28:54.683Z,23.70
2022-12-16T17:31:40.664Z,23.60
2022-12-16T17:34:27.470Z,23.60
2022-12-16T17:37:13.420Z,23.60
2022-12-16T17:39:59.421Z,23.60
2022-12-16T17:42:46.803Z,23.50
2022-12-16T17:45:32.827Z,23.50
2022-12-16T17:48:18.786Z,23.50
2022-12-16T17:51:04.656Z,23.50
2022-12-16T17:53:52.552Z,23.50
2022-12-16T17:56:55.468Z,23.50
2022-12-16T17:59:41.335Z,23.40
2022-12-16T18:02:31.741Z,23.40
2022-12-16T18:05:41.128Z,23.30
2022-12-16T18:08:28.599Z,23.30
2022-12-16T18:11:17.565Z,23.20
2022-12-16T18:14:03.403Z,23.20
2022-12-16T18:16:49.861Z,23.20
2022-12-16T18:19:35.735Z,23.20
2022-12-16T18:22:21.563Z,23.20
2022-12-16T18:25:07.581Z,23.20
2022-12-16T18:27:55.762Z,23.10
2022-12-16T18:30:41.440Z,23.10
2022-12-16T18:33:27.404Z,23.10
2022-12-16T18:36:13.996Z,23.10
2022-12-16T18:38:59.868Z,23.10
2022-12-16T18:41:46.033Z,23.10
2022-12-16T18:44:32.472Z,23.10
2022-12-16T18:47:18.216Z,23.10
2022-12-16T18:50:04.137Z,23.00
2022-12-16T18:52:49.851Z,23.00
2022-12-16T18:55:35.707Z,23.00
2022-12-16T18:58:49.721Z,23.00
2022-12-16T19:01:28.416Z,23.00
2022-12-16T19:04:14.951Z,23.00
2022-12-16T19:07:01.069Z,23.00
2022-12-16T19:09:46.918Z,22.90
2022-12-16T19:12:32.573Z,22.90
2022-12-16T19:15:18.232Z,22.90
2022-12-16T19:18:04.132Z,22.90
2022-12-16T19:20:49.953Z,22.90
2022-12-16T19:23:36.089Z,22.90
2022-12-16T19:26:22.600Z,22.80
2022-12-16T19:29:08.331Z,22.90
2022-12-16T19:31:56.084Z,22.80
2022-12-16T19:34:42.535Z,22.80
2022-12-16T19:37:28.289Z,22.80
2022-12-16T19:40:14.168Z,22.80
2022-12-16T19:43:00.007Z,22.80
2022-12-16T19:45:45.857Z,22.80
2022-12-16T19:48:31.628Z,22.80
2022-12-16T19:51:18.439Z,22.80
2022-12-16T19:54:04.089Z,22.70
2022-12-16T19:56:50.001Z,22.70
2022-12-16T19:59:36.347Z,22.70
2022-12-16T20:02:22.602Z,22.70
2022-12-16T20:05:08.295Z,22.70
2022-12-16T20:07:56.356Z,22.70
2022-12-16T20:10:42.307Z,22.70
2022-12-16T20:13:30.292Z,22.60
2022-12-16T20:16:23.048Z,22.60
2022-12-16T20:19:09.760Z,22.60
2022-12-16T20:21:56.696Z,22.50
2022-12-16T20:24:43.745Z,22.50
2022-12-16T20:27:29.578Z,22.50
2022-12-16T20:30:16.640Z,22.40
2022-12-16T20:33:04.972Z,22.40
2022-12-16T20:35:51.907Z,22.40
2022-12-16T20:38:37.583Z,22.40
2022-12-16T20:41:23.391Z,22.30
2022-12-16T20:44:09.417Z,22.40
2022-12-16T20:46:56.721Z,22.40
2022-12-16T20:49:42.241Z,22.40
2022-12-16T20:52:28.281Z,22.40
2022-12-16T20:55:14.101Z,22.40
2022-12-16T20:58:00.106Z,22.40
2022-12-16T21:00:46.082Z,22.40
2022-12-16T21:03:31.964Z,22.40
2022-12-16T21:06:17.497Z,22.40
2022-12-16T21:09:03.315Z,22.40
2022-12-16T21:11:48.846Z,22.40
2022-12-16T21:14:34.895Z,22.40
2022-12-16T21:17:20.828Z,22.40
2022-12-16T21:20:06.762Z,22.40
2022-12-16T21:22:52.439Z,22.40
2022-12-16T21:25:38.976Z,22.40
2022-12-16T21:28:24.592Z,22.30
2022-12-16T21:31:10.125Z,22.30
2022-12-16T21:33:55.906Z,22.30
2022-12-16T21:36:41.522Z,22.20
2022-12-16T21:39:27.371Z,22.30
2022-12-16T21:42:35.506Z,22.30
2022-12-16T21:45:39.945Z,22.30
2022-12-16T21:48:26.667Z,22.30
2022-12-16T21:51:12.427Z,22.30
2022-12-16T21:54:02.225Z,22.30
2022-12-16T21:56:52.497Z,22.20
2022-12-16T21:59:42.722Z,22.20
2022-12-16T22:02:32.475Z,22.20
2022-12-16T22:05:18.352Z,22.20
2022-12-16T22:08:04.423Z,22.10
2022-12-16T22:10:50.104Z,22.10
2022-12-16T22:13:36.952Z,22.10
2022-12-16T22:16:23.241Z,22.10
2022-12-16T22:19:12.211Z,22.00
2022-12-16T22:21:57.892Z,22.10
2022-12-16T22:24:43.381Z,22.10
2022-12-16T22:27:29.043Z,22.10
2022-12-16T22:30:14.883Z,22.10
2022-12-16T22:33:01.248Z,22.10
2022-12-16T22:35:47.280Z,22.10
2022-12-16T22:38:33.125Z,22.10
2022-12-16T22:41:19.984Z,22.20
2022-12-16T22:44:05.931Z,22.20
2022-12-16T22:46:52.603Z,22.20
2022-12-16T22:49:42.077Z,22.20
2022-12-16T22:52:29.016Z,22.20
2022-12-16T22:55:14.688Z,22.20
2022-12-16T22:58:00.557Z,22.20
2022-12-16T23:00:46.396Z,22.20
2022-12-16T23:03:37.919Z,22.20
2022-12-16T23:06:24.836Z,22.20
2022-12-16T23:09:10.488Z,22.20
2022-12-16T23:11:56.963Z,22.20
2022-12-16T23:14:44.126Z,22.20
2022-12-16T23:17:30.264Z,22.20
2022-12-16T23:20:16.037Z,22.20
2022-12-16T23:23:01.923Z,22.30
2022-12-16T23:25:47.650Z,22.30
2022-12-16T23:28:33.470Z,22.30
2022-12-16T23:31:19.368Z,22.30
2022-12-16T23:34:05.222Z,22.30
2022-12-16T23:36:50.877Z,22.30
2022-12-16T23:39:39.004Z,22.30
2022-12-16T23:42:24.831Z,22.30
2022-12-16T23:45:10.893Z,22.30
2022-12-16T23:47:57.894Z,22.30
2022-12-16T23:50:43.621Z,22.30
2022-12-16T23:53:29.536Z,22.20
2022-12-16T23:56:16.999Z,22.20
2022-12-16T23:59:02.663Z,22.20
